PDT,Max TemperatureF,Mean TemperatureF,Min TemperatureF,Max Dew PointF,MeanDew PointF,Min DewpointF,Max Humidity, Mean Humidity, Min Humidity, Max Sea Level PressureIn, Mean Sea Level PressureIn, Min Sea Level PressureIn, Max VisibilityMiles, Mean VisibilityMiles, Min VisibilityMiles, Max Wind SpeedMPH, Mean Wind SpeedMPH, Max Gust SpeedMPH,PrecipitationIn, CloudCover, Events, WindDirDegrees
2011-10-1,63,59,55,55,53,52,87,84,78,29.99,29.96,29.92,10,9,3,12,6,21,0.29,8,,167
2011-10-2,64,59,54,54,51,48,86,79,63,29.98,29.95,29.89,10,10,10,16,9,23,0.10,8,,170
2011-10-3,64,56,48,52,49,46,83,75,64,29.91,29.89,29.85,10,10,5,15,8,17,0.13,6,,166
2011-10-4,61,55,48,46,44,41,86,75,49,29.90,29.67,29.51,10,10,3,20,11,27,0.65,4,,163
2011-10-5,57,51,45,46,43,39,86,75,61,29.83,29.68,29.55,10,10,9,13,7,18,0.27,5,,169
2011-10-6,61,52,43,50,43,36,86,73,62,30.17,30.02,29.84,10,10,5,10,7,,0.02,3,,173
2011-10-7,59,55,50,52,47,45,86,79,67,30.26,30.24,30.21,10,9,2,12,7,12,0.04,8,,150
2011-10-8,63,58,52,52,51,48,86,79,60,30.25,30.22,30.20,10,10,9,9,4,,0.00,7,,204
2011-10-9,59,57,54,54,50,46,86,82,77,30.18,30.07,29.95,10,8,2,9,6,,0.08,8,,176
2011-10-10,64,60,55,55,53,48,84,79,72,29.89,29.77,29.69,10,9,3,16,10,24,0.24,8,,190
2011-10-11,66,60,54,54,51,46,86,72,56,30.17,30.02,29.84,10,9,5,16,11,28,0.44,6,,208
2011-10-12,63,57,50,52,49,45,83,76,64,30.27,30.24,30.19,10,9,2,20,7,22,0.00,4,,109
2011-10-13,64,56,48,52,47,43,83,71,60,30.21,30.07,29.94,10,10,9,9,5,10,0.00,5,,22
2011-10-14,64,56,48,54,48,43,83,74,63,29.97,29.96,29.93,10,10,10,16,7,20,0.00,0,,118
2011-10-15,64,56,48,54,49,45,83,76,63,30.01,29.98,29.94,10,9,0,17,8,24,0.00,1,,1
2011-10-16,61,54,46,52,50,46,86,75,64,30.22,30.13,30.02,10,10,8,22,11,29,0.00,5,,356
2011-10-17,73,58,43,50,44,37,89,69,35,30.31,30.25,30.15,10,9,0,14,5,,0.00,1,,1
2011-10-18,75,64,52,54,47,39,83,64,46,30.09,30.04,29.99,10,10,9,15,6,,0.00,0,,153
2011-10-19,63,56,48,52,49,48,83,71,64,30.17,30.10,30.03,10,10,5,10,8,17,0.00,7,,222
2011-10-20,59,53,46,50,45,41,86,79,72,30.15,30.12,30.09,10,9,0,10,5,,0.00,2,,195
2011-10-21,66,59,52,54,49,46,83,72,60,30.34,30.27,30.20,10,10,8,13,6,16,0.00,8,,159
2011-10-22,66,58,50,55,49,45,89,79,63,30.38,30.34,30.29,10,6,0,14,6,,0.00,6,,56
2011-10-23,64,55,46,54,48,41,93,80,71,30.26,30.20,30.15,10,8,0,21,8,29,0.00,2,,33
2011-10-24,61,50,39,43,41,34,79,65,46,30.34,30.30,30.24,10,10,7,25,9,32,0.00,0,,17
2011-10-25,61,49,36,43,37,28,89,71,47,30.42,30.38,30.34,10,8,0,21,6,23,0.00,2,,23
2011-10-26,55,46,36,43,35,28,82,70,51,30.35,30.32,30.30,10,9,0,14,5,18,0.00,1,,148
2011-10-27,66,51,36,45,36,28,82,66,40,30.30,30.21,30.08,10,10,1,9,4,,0.00,0,,69
2011-10-28,63,54,45,50,42,36,83,70,62,30.20,30.16,30.12,10,10,10,16,9,23,0.04,5,,166
2011-10-29,61,58,55,55,52,50,87,86,80,30.32,30.27,30.22,9,4,0,6,2,7,0.24,8,,152
2011-10-30,61,57,52,55,54,52,87,86,80,30.25,30.23,30.21,10,3,0,13,5,12,0.18,8,,205
2011-10-31,57,51,45,48,44,39,83,73,57,30.46,30.41,30.34,10,9,3,24,10,29,0.01,3,,6